createdAt,value
2023-04-19T00:04:55.736Z,4.10
2023-04-19T00:09:52.214Z,3.13
2023-04-19T00:14:48.562Z,3.28
2023-04-19T00:19:44.934Z,3.50
2023-04-19T00:24:41.373Z,2.72
2023-04-19T00:29:37.706Z,3.50
2023-04-19T00:34:34.212Z,2.72
2023-04-19T00:39:30.731Z,2.67
2023-04-19T00:44:27.500Z,3.22
2023-04-19T00:49:24.281Z,2.88
2023-04-19T00:54:21.129Z,2.80
2023-04-19T00:59:18.365Z,3.15
2023-04-19T01:04:16.145Z,3.53
2023-04-19T01:09:12.822Z,3.70
2023-04-19T01:14:09.196Z,3.78
2023-04-19T01:19:05.690Z,3.90
2023-04-19T01:24:02.061Z,3.63
2023-04-19T01:28:58.469Z,4.05
2023-04-19T01:33:54.956Z,4.50
2023-04-19T01:38:51.383Z,4.05
2023-04-19T01:43:48.240Z,3.63
2023-04-19T01:48:44.600Z,3.58
2023-04-19T01:53:40.979Z,3.75
2023-04-19T01:58:37.390Z,3.90
2023-04-19T02:03:33.964Z,4.15
2023-04-19T02:08:30.544Z,3.22
2023-04-19T02:13:26.895Z,3.53
2023-04-19T02:18:24.286Z,4.13
2023-04-19T02:23:20.748Z,3.80
2023-04-19T02:28:17.279Z,3.95
2023-04-19T02:33:15.679Z,3.75
2023-04-19T02:38:12.255Z,4.10
2023-04-19T02:43:08.594Z,3.83
2023-04-19T02:48:05.392Z,4.38
2023-04-19T02:53:01.824Z,4.25
2023-04-19T02:57:58.153Z,3.60
2023-04-19T03:02:56.119Z,3.95
2023-04-19T03:07:52.616Z,3.45
2023-04-19T03:12:48.955Z,3.30
2023-04-19T03:17:45.368Z,3.33
2023-04-19T03:22:41.699Z,2.97
2023-04-19T03:27:38.073Z,2.42
2023-04-19T03:32:34.564Z,2.20
2023-04-19T03:37:30.900Z,2.95
2023-04-19T03:42:28.966Z,2.15
2023-04-19T03:47:25.768Z,2.58
2023-04-19T03:52:22.104Z,2.47
2023-04-19T03:57:18.529Z,2.17
2023-04-19T04:02:14.954Z,2.70
2023-04-19T04:07:11.432Z,1.95
2023-04-19T04:12:07.788Z,2.00
2023-04-19T04:17:04.451Z,2.83
2023-04-19T04:22:00.784Z,2.25
2023-04-19T04:26:57.928Z,2.03
2023-04-19T04:31:54.314Z,2.03
2023-04-19T04:36:51.082Z,1.77
2023-04-19T04:41:48.479Z,2.20
2023-04-19T04:46:44.839Z,2.50
2023-04-19T04:51:41.245Z,2.40
2023-04-19T04:56:38.056Z,2.00
2023-04-19T05:01:34.678Z,2.40
2023-04-19T05:06:31.105Z,2.58
2023-04-19T05:11:27.612Z,1.85
2023-04-19T05:16:23.971Z,2.40
2023-04-19T05:21:20.807Z,2.50
2023-04-19T05:26:17.263Z,2.63
2023-04-19T05:31:14.120Z,1.95
2023-04-19T05:36:10.571Z,1.90
2023-04-19T05:41:06.968Z,1.85
2023-04-19T05:46:03.465Z,1.90
2023-04-19T05:51:00.021Z,1.38
2023-04-19T05:55:56.431Z,2.42
2023-04-19T06:00:52.900Z,2.15
2023-04-19T06:05:49.455Z,2.22
2023-04-19T06:10:54.493Z,2.20
2023-04-19T06:15:52.020Z,1.75
2023-04-19T06:20:48.463Z,2.03
2023-04-19T06:25:44.999Z,2.47
2023-04-19T06:30:41.363Z,2.17
2023-04-19T06:35:38.031Z,1.95
2023-04-19T06:40:35.134Z,2.40
2023-04-19T06:45:32.029Z,2.10
2023-04-19T06:50:28.944Z,2.28
2023-04-19T06:55:25.529Z,2.05
2023-04-19T07:00:23.075Z,2.08
2023-04-19T07:05:19.526Z,1.70
2023-04-19T07:10:16.401Z,1.67
2023-04-19T07:15:12.990Z,2.20
2023-04-19T07:20:09.579Z,1.80
2023-04-19T07:25:06.240Z,1.67
2023-04-19T07:30:02.648Z,1.42
2023-04-19T07:34:59.121Z,1.65
2023-04-19T07:39:55.466Z,1.80
2023-04-19T07:44:51.969Z,2.00
2023-04-19T07:49:52.562Z,1.63
2023-04-19T07:54:49.099Z,1.75
2023-04-19T07:59:45.487Z,1.55
2023-04-19T08:04:42.315Z,1.65
2023-04-19T08:09:38.978Z,1.98
2023-04-19T08:14:43.770Z,1.38
2023-04-19T08:19:44.150Z,1.77
2023-04-19T08:24:40.478Z,1.70
2023-04-19T08:29:38.794Z,1.83
2023-04-19T08:34:39.029Z,1.80
2023-04-19T08:39:35.951Z,1.70
2023-04-19T08:44:36.858Z,1.80
2023-04-19T08:49:42.636Z,1.63
2023-04-19T08:54:41.086Z,1.30
2023-04-19T08:59:37.420Z,1.50
2023-04-19T09:04:37.384Z,1.67
2023-04-19T09:09:42.972Z,1.55
2023-04-19T09:19:48.838Z,1.85
2023-04-19T09:25:23.968Z,2.03
2023-04-19T09:30:03.640Z,2.15
2023-04-19T09:35:00.270Z,1.75
2023-04-19T09:39:59.541Z,1.88
2023-04-19T09:50:22.588Z,1.70
2023-04-19T09:55:27.488Z,1.58
2023-04-19T10:00:25.202Z,1.65
2023-04-19T10:05:23.072Z,1.48
2023-04-19T10:10:22.563Z,1.50
2023-04-19T10:15:23.482Z,1.60
2023-04-19T10:20:32.584Z,1.90
2023-04-19T10:25:30.867Z,1.60
2023-04-19T10:35:36.112Z,1.75
2023-04-19T10:40:51.322Z,1.70
2023-04-19T10:45:47.834Z,1.70
2023-04-19T10:51:03.502Z,1.80
2023-04-19T10:55:59.834Z,1.85
2023-04-19T11:01:41.080Z,1.48
2023-04-19T11:06:38.938Z,1.42
2023-04-19T11:11:35.873Z,1.55
2023-04-19T11:16:45.112Z,1.50
2023-04-19T11:21:42.745Z,2.70
2023-04-19T11:26:39.409Z,1.45
2023-04-19T11:31:36.200Z,1.50
2023-04-19T11:36:33.911Z,1.13
2023-04-19T11:41:30.356Z,1.70
2023-04-19T11:46:26.758Z,1.50
2023-04-19T11:51:23.685Z,1.75
2023-04-19T11:56:20.323Z,2.08
2023-04-19T12:01:20.311Z,1.25
2023-04-19T12:06:24.418Z,1.50
2023-04-19T12:11:24.409Z,1.13
2023-04-19T12:16:28.749Z,1.65
2023-04-19T12:21:29.366Z,1.17
2023-04-19T12:26:29.327Z,1.42
2023-04-19T12:31:26.667Z,1.50
2023-04-19T12:36:23.083Z,1.50
2023-04-19T12:41:19.441Z,1.42
2023-04-19T12:46:15.921Z,1.40
2023-04-19T12:51:12.448Z,1.40
2023-04-19T12:56:08.772Z,1.15
2023-04-19T13:01:06.160Z,1.35
2023-04-19T13:06:03.775Z,1.77
2023-04-19T13:11:00.131Z,1.10
2023-04-19T13:15:56.522Z,1.08
2023-04-19T13:20:54.001Z,1.08
2023-04-19T13:25:50.491Z,1.27
2023-04-19T13:30:46.888Z,1.20
2023-04-19T13:35:45.294Z,1.30
2023-04-19T13:40:41.679Z,1.10
2023-04-19T13:45:38.014Z,1.60
2023-04-19T13:50:34.473Z,1.40
2023-04-19T13:55:30.941Z,1.50
2023-04-19T14:00:27.949Z,0.95
2023-04-19T14:05:24.356Z,1.20
2023-04-19T14:10:20.754Z,1.08
2023-04-19T14:15:17.087Z,1.10
2023-04-19T14:20:13.420Z,1.60
2023-04-19T14:25:10.226Z,1.40
2023-04-19T14:30:08.205Z,1.52
2023-04-19T14:35:04.954Z,1.52
2023-04-19T14:40:01.360Z,1.15
2023-04-19T14:44:58.340Z,1.10
2023-04-19T14:49:54.694Z,1.42
2023-04-19T14:54:51.228Z,1.90
2023-04-19T14:59:47.596Z,1.75
2023-04-19T15:04:44.396Z,1.20
2023-04-19T15:09:41.570Z,1.80
2023-04-19T15:14:38.700Z,2.45
2023-04-19T15:19:35.076Z,2.13
2023-04-19T15:24:34.020Z,1.88
2023-04-19T15:29:30.368Z,1.70
2023-04-19T15:34:26.843Z,1.67
2023-04-19T15:39:23.167Z,1.50
2023-04-19T15:44:19.854Z,2.78
2023-04-19T15:49:16.519Z,1.83
2023-04-19T15:54:14.523Z,1.92
2023-04-19T15:59:10.939Z,2.45
2023-04-19T16:04:07.619Z,2.10
2023-04-19T16:09:04.403Z,1.80
2023-04-19T16:14:00.723Z,2.42
2023-04-19T16:18:57.057Z,1.90
2023-04-19T16:23:53.448Z,1.70
2023-04-19T16:28:49.884Z,2.00
2023-04-19T16:33:46.272Z,2.00
2023-04-19T16:38:42.642Z,2.53
2023-04-19T16:43:38.982Z,2.15
2023-04-19T16:48:35.746Z,2.03
2023-04-19T16:53:32.339Z,2.22
2023-04-19T16:58:28.700Z,1.55
2023-04-19T17:03:25.756Z,1.75
2023-04-19T17:08:22.682Z,1.73
2023-04-19T17:13:19.151Z,1.35
2023-04-19T17:18:15.625Z,1.92
2023-04-19T17:23:12.002Z,1.95
2023-04-19T17:28:08.311Z,1.67
2023-04-19T17:33:04.705Z,1.40
2023-04-19T17:38:01.191Z,2.05
2023-04-19T17:42:57.513Z,2.30
2023-04-19T17:47:56.186Z,2.05
2023-04-19T17:52:54.551Z,1.88
2023-04-19T17:57:50.925Z,1.70
2023-04-19T18:02:47.372Z,2.00
2023-04-19T18:07:43.878Z,2.40
2023-04-19T18:12:40.263Z,2.30
2023-04-19T18:17:36.695Z,2.28
2023-04-19T18:22:33.079Z,1.88
2023-04-19T18:27:31.112Z,1.73
2023-04-19T18:32:30.083Z,2.20
2023-04-19T18:37:26.750Z,2.13
2023-04-19T18:42:23.848Z,1.98
2023-04-19T18:47:20.583Z,2.08
2023-04-19T18:52:17.941Z,2.17
2023-04-19T18:57:23.048Z,2.70
2023-04-19T19:02:19.723Z,1.98
2023-04-19T19:07:34.283Z,2.00
2023-04-19T19:12:31.741Z,1.90
2023-04-19T19:17:28.516Z,2.22
2023-04-19T19:22:28.216Z,1.90
2023-04-19T19:27:25.426Z,2.47
2023-04-19T19:32:22.039Z,2.30
2023-04-19T19:37:18.442Z,2.00
2023-04-19T19:42:18.603Z,2.15
2023-04-19T19:47:17.005Z,2.67
2023-04-19T19:52:13.594Z,2.25
2023-04-19T19:58:06.876Z,2.40
2023-04-19T20:02:26.870Z,1.90
2023-04-19T20:07:37.383Z,1.88
2023-04-19T20:12:42.410Z,2.20
2023-04-19T20:17:41.672Z,1.75
2023-04-19T20:22:38.538Z,2.10
2023-04-19T20:27:34.902Z,2.08
2023-04-19T20:32:31.351Z,1.95
2023-04-19T20:37:29.810Z,2.00
2023-04-19T20:42:26.733Z,1.60
2023-04-19T20:47:24.851Z,1.80
2023-04-19T20:52:21.167Z,2.13
2023-04-19T20:57:17.564Z,2.67
2023-04-19T21:02:13.947Z,1.75
2023-04-19T21:07:10.684Z,2.67
2023-04-19T21:12:07.139Z,2.00
2023-04-19T21:17:03.820Z,1.85
2023-04-19T21:22:00.216Z,1.85
2023-04-19T21:26:57.663Z,1.90
2023-04-19T21:31:54.194Z,1.95
2023-04-19T21:36:50.886Z,2.40
2023-04-19T21:41:47.272Z,2.70
2023-04-19T21:46:43.689Z,2.58
2023-04-19T21:51:40.120Z,2.22
2023-04-19T21:56:37.340Z,2.30
2023-04-19T22:01:34.120Z,2.30
2023-04-19T22:06:31.501Z,2.55
2023-04-19T22:11:29.000Z,2.22
2023-04-19T22:16:28.050Z,2.08
2023-04-19T22:21:25.602Z,2.33
2023-04-19T22:26:22.313Z,2.08
2023-04-19T22:31:19.325Z,2.05
2023-04-19T22:36:15.846Z,2.20
2023-04-19T22:41:12.176Z,2.35
2023-04-19T22:46:08.583Z,1.88
2023-04-19T22:51:04.968Z,2.00
2023-04-19T22:56:01.311Z,1.85
2023-04-19T23:00:57.720Z,1.70
2023-04-19T23:05:54.331Z,2.28
2023-04-19T23:10:51.931Z,1.63
2023-04-19T23:15:48.332Z,1.83
2023-04-19T23:20:44.666Z,1.52
2023-04-19T23:25:41.082Z,1.73
2023-04-19T23:30:37.520Z,1.60
2023-04-19T23:35:34.214Z,1.42
2023-04-19T23:40:30.792Z,1.63
2023-04-19T23:45:27.195Z,1.50
2023-04-19T23:50:23.692Z,1.85
2023-04-19T23:55:22.103Z,1.98
